Terminal Aerodrome Forecast
Issued by NWS

Home | Current Version | Previous Version | Text Only | Print | Product List | Glossary On
Versions: 1 2 3 4 5 6 7 8 9 10 11 12 13 14 15 16 17
000
FTUS45 KVEF 072011 AAA
TAFBIH
TAF AMD
KBIH 072011Z 0720/0818 16014G22KT P6SM VCTS SCT100CB BKN150
      TEMPO 0720/0723 VRB15G30KT -TSRA
     FM080400 24008KT P6SM FEW100 SCT150=

USA.gov is the U.S. government's official web portal to all federal, state and local government web resources and services.